sensor_id;sensor_type;location;lat;lon;timestamp;P1;durP1;ratioP1;P2;durP2;ratioP2
49514;SDS011;35415;47.870;16.058;2023-04-15T00:02:24;0.52;;;0.50;;
49514;SDS011;35415;47.870;16.058;2023-04-15T00:04:51;0.63;;;0.35;;
49514;SDS011;35415;47.870;16.058;2023-04-15T00:07:18;0.75;;;0.60;;
49514;SDS011;35415;47.870;16.058;2023-04-15T00:09:46;2.03;;;0.50;;
49514;SDS011;35415;47.870;16.058;2023-04-15T00:12:12;3.35;;;0.82;;
49514;SDS011;35415;47.870;16.058;2023-04-15T00:14:40;2.90;;;0.77;;
49514;SDS011;35415;47.870;16.058;2023-04-15T00:17:09;0.40;;;0.40;;
49514;SDS011;35415;47.870;16.058;2023-04-15T00:19:39;0.82;;;0.50;;
49514;SDS011;35415;47.870;16.058;2023-04-15T00:22:06;1.15;;;0.70;;
49514;SDS011;35415;47.870;16.058;2023-04-15T00:24:34;0.60;;;0.60;;
49514;SDS011;35415;47.870;16.058;2023-04-15T00:27:04;3.95;;;0.70;;
49514;SDS011;35415;47.870;16.058;2023-04-15T00:29:32;0.95;;;0.77;;
49514;SDS011;35415;47.870;16.058;2023-04-15T00:32:00;0.80;;;0.70;;
49514;SDS011;35415;47.870;16.058;2023-04-15T00:34:28;1.23;;;0.88;;
49514;SDS011;35415;47.870;16.058;2023-04-15T00:36:55;1.58;;;0.90;;
49514;SDS011;35415;47.870;16.058;2023-04-15T00:39:23;0.90;;;0.70;;
49514;SDS011;35415;47.870;16.058;2023-04-15T00:41:50;2.15;;;1.10;;
49514;SDS011;35415;47.870;16.058;2023-04-15T00:44:18;1.27;;;1.02;;
49514;SDS011;35415;47.870;16.058;2023-04-15T00:46:45;1.25;;;1.13;;
49514;SDS011;35415;47.870;16.058;2023-04-15T00:49:14;7.50;;;2.03;;
49514;SDS011;35415;47.870;16.058;2023-04-15T00:51:43;3.78;;;1.42;;
49514;SDS011;35415;47.870;16.058;2023-04-15T00:54:10;2.90;;;1.50;;
49514;SDS011;35415;47.870;16.058;2023-04-15T00:56:38;2.45;;;1.48;;
49514;SDS011;35415;47.870;16.058;2023-04-15T00:59:05;1.17;;;1.02;;
49514;SDS011;35415;47.870;16.058;2023-04-15T01:01:33;3.25;;;1.30;;
49514;SDS011;35415;47.870;16.058;2023-04-15T01:04:01;4.00;;;1.70;;
49514;SDS011;35415;47.870;16.058;2023-04-15T01:06:29;3.95;;;1.77;;
49514;SDS011;35415;47.870;16.058;2023-04-15T01:08:59;1.60;;;1.25;;
49514;SDS011;35415;47.870;16.058;2023-04-15T01:11:27;3.65;;;1.40;;
49514;SDS011;35415;47.870;16.058;2023-04-15T01:13:57;3.53;;;1.20;;
49514;SDS011;35415;47.870;16.058;2023-04-15T01:16:25;2.67;;;1.17;;
49514;SDS011;35415;47.870;16.058;2023-04-15T01:18:53;3.05;;;1.42;;
49514;SDS011;35415;47.870;16.058;2023-04-15T01:21:21;3.92;;;1.40;;
49514;SDS011;35415;47.870;16.058;2023-04-15T01:23:50;3.85;;;1.60;;
49514;SDS011;35415;47.870;16.058;2023-04-15T01:26:24;3.60;;;1.40;;
49514;SDS011;35415;47.870;16.058;2023-04-15T01:28:51;5.13;;;1.55;;
49514;SDS011;35415;47.870;16.058;2023-04-15T01:31:19;6.40;;;1.52;;
49514;SDS011;35415;47.870;16.058;2023-04-15T01:33:47;2.70;;;1.20;;
49514;SDS011;35415;47.870;16.058;2023-04-15T01:36:14;2.53;;;1.73;;
49514;SDS011;35415;47.870;16.058;2023-04-15T01:38:41;2.38;;;1.40;;
49514;SDS011;35415;47.870;16.058;2023-04-15T01:41:08;3.38;;;1.60;;
49514;SDS011;35415;47.870;16.058;2023-04-15T01:43:37;8.18;;;1.58;;
49514;SDS011;35415;47.870;16.058;2023-04-15T01:46:04;7.32;;;1.67;;
49514;SDS011;35415;47.870;16.058;2023-04-15T01:48:31;6.90;;;1.98;;
49514;SDS011;35415;47.870;16.058;2023-04-15T01:50:59;6.20;;;2.67;;
49514;SDS011;35415;47.870;16.058;2023-04-15T01:53:26;2.80;;;1.70;;
49514;SDS011;35415;47.870;16.058;2023-04-15T01:55:53;3.50;;;1.25;;
49514;SDS011;35415;47.870;16.058;2023-04-15T01:58:21;4.75;;;1.70;;
49514;SDS011;35415;47.870;16.058;2023-04-15T02:00:50;4.03;;;1.60;;
49514;SDS011;35415;47.870;16.058;2023-04-15T02:03:17;3.30;;;1.67;;
49514;SDS011;35415;47.870;16.058;2023-04-15T02:05:44;6.55;;;1.67;;
49514;SDS011;35415;47.870;16.058;2023-04-15T02:08:11;4.15;;;1.00;;
49514;SDS011;35415;47.870;16.058;2023-04-15T02:10:39;2.45;;;1.08;;
49514;SDS011;35415;47.870;16.058;2023-04-15T02:13:05;4.03;;;1.33;;
49514;SDS011;35415;47.870;16.058;2023-04-15T02:15:33;1.48;;;1.10;;
49514;SDS011;35415;47.870;16.058;2023-04-15T02:18:03;1.45;;;1.20;;
49514;SDS011;35415;47.870;16.058;2023-04-15T02:20:30;0.80;;;0.65;;
49514;SDS011;35415;47.870;16.058;2023-04-15T02:22:58;0.57;;;0.57;;
49514;SDS011;35415;47.870;16.058;2023-04-15T02:25:26;1.13;;;0.45;;
49514;SDS011;35415;47.870;16.058;2023-04-15T02:27:54;0.43;;;0.43;;
49514;SDS011;35415;47.870;16.058;2023-04-15T02:30:23;0.85;;;0.50;;
49514;SDS011;35415;47.870;16.058;2023-04-15T02:32:51;0.50;;;0.30;;
49514;SDS011;35415;47.870;16.058;2023-04-15T02:35:20;1.52;;;0.30;;
49514;SDS011;35415;47.870;16.058;2023-04-15T02:37:50;1.88;;;0.30;;
49514;SDS011;35415;47.870;16.058;2023-04-15T02:40:17;0.47;;;0.25;;
49514;SDS011;35415;47.870;16.058;2023-04-15T02:42:44;1.08;;;0.28;;
49514;SDS011;35415;47.870;16.058;2023-04-15T02:45:11;0.30;;;0.13;;
49514;SDS011;35415;47.870;16.058;2023-04-15T02:47:39;1.70;;;0.30;;
49514;SDS011;35415;47.870;16.058;2023-04-15T02:50:08;0.98;;;0.30;;
49514;SDS011;35415;47.870;16.058;2023-04-15T02:52:39;2.05;;;0.20;;
49514;SDS011;35415;47.870;16.058;2023-04-15T02:55:07;0.40;;;0.40;;
49514;SDS011;35415;47.870;16.058;2023-04-15T02:57:36;0.50;;;0.40;;
49514;SDS011;35415;47.870;16.058;2023-04-15T03:00:04;0.40;;;0.40;;
49514;SDS011;35415;47.870;16.058;2023-04-15T03:02:34;1.10;;;0.35;;
49514;SDS011;35415;47.870;16.058;2023-04-15T03:05:02;1.02;;;0.70;;
49514;SDS011;35415;47.870;16.058;2023-04-15T03:07:30;2.35;;;0.70;;
49514;SDS011;35415;47.870;16.058;2023-04-15T03:09:59;2.00;;;0.63;;
49514;SDS011;35415;47.870;16.058;2023-04-15T03:12:26;1.83;;;0.68;;
49514;SDS011;35415;47.870;16.058;2023-04-15T03:14:54;1.30;;;0.68;;
49514;SDS011;35415;47.870;16.058;2023-04-15T03:17:26;1.10;;;0.73;;
49514;SDS011;35415;47.870;16.058;2023-04-15T03:19:53;1.45;;;0.90;;
49514;SDS011;35415;47.870;16.058;2023-04-15T03:22:20;1.10;;;0.88;;
49514;SDS011;35415;47.870;16.058;2023-04-15T03:24:48;1.27;;;0.80;;
49514;SDS011;35415;47.870;16.058;2023-04-15T03:27:16;0.90;;;0.73;;
49514;SDS011;35415;47.870;16.058;2023-04-15T03:29:43;1.13;;;0.65;;
49514;SDS011;35415;47.870;16.058;2023-04-15T03:32:10;0.65;;;0.60;;
49514;SDS011;35415;47.870;16.058;2023-04-15T03:34:39;1.27;;;0.85;;
49514;SDS011;35415;47.870;16.058;2023-04-15T03:37:06;1.20;;;0.70;;
49514;SDS011;35415;47.870;16.058;2023-04-15T03:39:34;1.35;;;0.60;;
49514;SDS011;35415;47.870;16.058;2023-04-15T03:42:04;0.60;;;0.60;;
49514;SDS011;35415;47.870;16.058;2023-04-15T03:44:33;0.60;;;0.50;;
49514;SDS011;35415;47.870;16.058;2023-04-15T03:47:00;0.80;;;0.70;;
49514;SDS011;35415;47.870;16.058;2023-04-15T03:49:27;0.90;;;0.60;;
49514;SDS011;35415;47.870;16.058;2023-04-15T03:51:54;0.40;;;0.40;;
49514;SDS011;35415;47.870;16.058;2023-04-15T03:54:21;0.65;;;0.50;;
49514;SDS011;35415;47.870;16.058;2023-04-15T03:56:49;0.50;;;0.50;;
49514;SDS011;35415;47.870;16.058;2023-04-15T03:59:16;0.52;;;0.50;;
49514;SDS011;35415;47.870;16.058;2023-04-15T04:01:45;0.60;;;0.43;;
49514;SDS011;35415;47.870;16.058;2023-04-15T04:04:12;2.97;;;0.43;;
49514;SDS011;35415;47.870;16.058;2023-04-15T04:06:39;0.47;;;0.40;;
49514;SDS011;35415;47.870;16.058;2023-04-15T04:09:06;0.50;;;0.50;;
49514;SDS011;35415;47.870;16.058;2023-04-15T04:11:34;0.80;;;0.40;;
49514;SDS011;35415;47.870;16.058;2023-04-15T04:14:01;0.52;;;0.45;;
49514;SDS011;35415;47.870;16.058;2023-04-15T04:16:29;1.75;;;0.85;;
49514;SDS011;35415;47.870;16.058;2023-04-15T04:18:58;3.35;;;0.90;;
49514;SDS011;35415;47.870;16.058;2023-04-15T04:21:25;2.10;;;1.38;;
49514;SDS011;35415;47.870;16.058;2023-04-15T04:23:54;2.65;;;1.40;;
49514;SDS011;35415;47.870;16.058;2023-04-15T04:26:21;2.47;;;1.25;;
49514;SDS011;35415;47.870;16.058;2023-04-15T04:28:48;1.02;;;0.80;;
49514;SDS011;35415;47.870;16.058;2023-04-15T04:31:16;1.95;;;1.38;;
49514;SDS011;35415;47.870;16.058;2023-04-15T04:33:43;1.20;;;0.98;;
49514;SDS011;35415;47.870;16.058;2023-04-15T04:36:12;1.02;;;0.68;;
49514;SDS011;35415;47.870;16.058;2023-04-15T04:38:39;0.43;;;0.38;;
49514;SDS011;35415;47.870;16.058;2023-04-15T04:41:06;1.15;;;0.80;;
49514;SDS011;35415;47.870;16.058;2023-04-15T04:43:34;1.25;;;0.65;;
49514;SDS011;35415;47.870;16.058;2023-04-15T04:46:01;2.55;;;1.90;;
49514;SDS011;35415;47.870;16.058;2023-04-15T04:48:28;1.42;;;1.33;;
49514;SDS011;35415;47.870;16.058;2023-04-15T04:50:55;0.65;;;0.60;;
49514;SDS011;35415;47.870;16.058;2023-04-15T04:53:25;1.10;;;0.70;;
49514;SDS011;35415;47.870;16.058;2023-04-15T04:55:53;0.63;;;0.50;;
49514;SDS011;35415;47.870;16.058;2023-04-15T04:58:20;0.80;;;0.50;;
49514;SDS011;35415;47.870;16.058;2023-04-15T05:00:48;0.65;;;0.60;;
49514;SDS011;35415;47.870;16.058;2023-04-15T05:03:16;1.15;;;0.90;;
49514;SDS011;35415;47.870;16.058;2023-04-15T05:05:46;1.38;;;0.82;;
49514;SDS011;35415;47.870;16.058;2023-04-15T05:08:13;1.05;;;0.90;;
49514;SDS011;35415;47.870;16.058;2023-04-15T05:10:42;1.10;;;1.00;;
49514;SDS011;35415;47.870;16.058;2023-04-15T05:13:10;2.00;;;1.00;;
49514;SDS011;35415;47.870;16.058;2023-04-15T05:15:37;2.28;;;0.85;;
49514;SDS011;35415;47.870;16.058;2023-04-15T05:18:07;0.60;;;0.60;;
49514;SDS011;35415;47.870;16.058;2023-04-15T05:20:34;0.70;;;0.70;;
49514;SDS011;35415;47.870;16.058;2023-04-15T05:23:02;1.20;;;1.02;;
49514;SDS011;35415;47.870;16.058;2023-04-15T05:25:29;0.95;;;0.80;;
49514;SDS011;35415;47.870;16.058;2023-04-15T05:27:58;1.00;;;0.85;;
49514;SDS011;35415;47.870;16.058;2023-04-15T05:30:25;1.67;;;1.02;;
49514;SDS011;35415;47.870;16.058;2023-04-15T05:32:54;1.05;;;0.93;;
49514;SDS011;35415;47.870;16.058;2023-04-15T05:35:22;0.90;;;0.90;;
49514;SDS011;35415;47.870;16.058;2023-04-15T05:37:49;0.90;;;0.80;;
49514;SDS011;35415;47.870;16.058;2023-04-15T05:40:16;1.88;;;0.90;;
49514;SDS011;35415;47.870;16.058;2023-04-15T05:42:44;1.08;;;0.98;;
49514;SDS011;35415;47.870;16.058;2023-04-15T05:45:13;2.13;;;0.95;;
49514;SDS011;35415;47.870;16.058;2023-04-15T05:47:41;1.35;;;1.00;;
49514;SDS011;35415;47.870;16.058;2023-04-15T05:50:09;0.85;;;0.85;;
49514;SDS011;35415;47.870;16.058;2023-04-15T05:52:37;1.10;;;1.00;;
49514;SDS011;35415;47.870;16.058;2023-04-15T05:55:04;1.15;;;1.00;;
49514;SDS011;35415;47.870;16.058;2023-04-15T05:57:32;1.33;;;0.85;;
49514;SDS011;35415;47.870;16.058;2023-04-15T05:59:59;0.70;;;0.70;;
49514;SDS011;35415;47.870;16.058;2023-04-15T06:02:28;0.73;;;0.73;;
49514;SDS011;35415;47.870;16.058;2023-04-15T06:04:55;1.05;;;0.95;;
49514;SDS011;35415;47.870;16.058;2023-04-15T06:07:23;1.63;;;0.90;;
49514;SDS011;35415;47.870;16.058;2023-04-15T06:09:50;1.73;;;0.70;;
49514;SDS011;35415;47.870;16.058;2023-04-15T06:12:18;0.98;;;0.73;;
49514;SDS011;35415;47.870;16.058;2023-04-15T06:14:45;2.53;;;0.70;;
49514;SDS011;35415;47.870;16.058;2023-04-15T06:17:12;2.17;;;0.80;;
49514;SDS011;35415;47.870;16.058;2023-04-15T06:19:44;0.88;;;0.75;;
49514;SDS011;35415;47.870;16.058;2023-04-15T06:22:11;2.05;;;1.00;;
49514;SDS011;35415;47.870;16.058;2023-04-15T06:24:39;3.55;;;0.90;;
49514;SDS011;35415;47.870;16.058;2023-04-15T06:27:06;2.13;;;0.73;;
49514;SDS011;35415;47.870;16.058;2023-04-15T06:29:33;2.10;;;0.68;;
49514;SDS011;35415;47.870;16.058;2023-04-15T06:32:03;1.35;;;0.73;;
49514;SDS011;35415;47.870;16.058;2023-04-15T06:34:31;2.22;;;1.02;;
49514;SDS011;35415;47.870;16.058;2023-04-15T06:36:59;1.25;;;0.68;;
49514;SDS011;35415;47.870;16.058;2023-04-15T06:39:27;1.13;;;0.70;;
49514;SDS011;35415;47.870;16.058;2023-04-15T06:41:54;0.80;;;0.70;;
49514;SDS011;35415;47.870;16.058;2023-04-15T06:44:23;0.80;;;0.70;;
49514;SDS011;35415;47.870;16.058;2023-04-15T06:46:50;0.30;;;0.30;;
49514;SDS011;35415;47.870;16.058;2023-04-15T06:49:18;0.63;;;0.30;;
49514;SDS011;35415;47.870;16.058;2023-04-15T06:51:45;0.47;;;0.30;;
49514;SDS011;35415;47.870;16.058;2023-04-15T06:54:14;0.40;;;0.40;;
49514;SDS011;35415;47.870;16.058;2023-04-15T06:56:41;0.28;;;0.28;;
49514;SDS011;35415;47.870;16.058;2023-04-15T06:59:08;0.30;;;0.30;;
49514;SDS011;35415;47.870;16.058;2023-04-15T07:01:37;0.10;;;0.10;;
49514;SDS011;35415;47.870;16.058;2023-04-15T07:04:04;0.10;;;0.10;;
49514;SDS011;35415;47.870;16.058;2023-04-15T07:06:31;0.10;;;0.10;;
49514;SDS011;35415;47.870;16.058;2023-04-15T07:08:59;0.15;;;0.15;;
49514;SDS011;35415;47.870;16.058;2023-04-15T07:11:28;0.57;;;0.30;;
49514;SDS011;35415;47.870;16.058;2023-04-15T07:13:56;0.20;;;0.20;;
49514;SDS011;35415;47.870;16.058;2023-04-15T07:16:24;0.20;;;0.20;;
49514;SDS011;35415;47.870;16.058;2023-04-15T07:18:52;0.50;;;0.50;;
49514;SDS011;35415;47.870;16.058;2023-04-15T07:21:20;0.82;;;0.30;;
49514;SDS011;35415;47.870;16.058;2023-04-15T07:23:47;1.33;;;0.50;;
49514;SDS011;35415;47.870;16.058;2023-04-15T07:26:14;0.98;;;0.43;;
49514;SDS011;35415;47.870;16.058;2023-04-15T07:28:43;0.30;;;0.30;;
49514;SDS011;35415;47.870;16.058;2023-04-15T07:31:11;0.65;;;0.35;;
49514;SDS011;35415;47.870;16.058;2023-04-15T07:33:39;0.40;;;0.40;;
49514;SDS011;35415;47.870;16.058;2023-04-15T07:36:06;1.75;;;0.32;;
49514;SDS011;35415;47.870;16.058;2023-04-15T07:38:33;0.30;;;0.30;;
49514;SDS011;35415;47.870;16.058;2023-04-15T07:41:00;0.30;;;0.30;;
49514;SDS011;35415;47.870;16.058;2023-04-15T07:43:28;0.40;;;0.40;;
49514;SDS011;35415;47.870;16.058;2023-04-15T07:45:57;1.27;;;0.40;;
49514;SDS011;35415;47.870;16.058;2023-04-15T07:48:24;0.60;;;0.60;;
49514;SDS011;35415;47.870;16.058;2023-04-15T07:50:51;1.77;;;0.60;;
49514;SDS011;35415;47.870;16.058;2023-04-15T07:53:19;0.55;;;0.55;;
49514;SDS011;35415;47.870;16.058;2023-04-15T07:55:46;0.28;;;0.28;;
49514;SDS011;35415;47.870;16.058;2023-04-15T07:58:13;0.55;;;0.40;;
49514;SDS011;35415;47.870;16.058;2023-04-15T08:00:41;1.40;;;0.50;;
49514;SDS011;35415;47.870;16.058;2023-04-15T08:03:10;0.93;;;0.45;;
49514;SDS011;35415;47.870;16.058;2023-04-15T08:05:37;0.35;;;0.35;;
49514;SDS011;35415;47.870;16.058;2023-04-15T08:08:05;1.02;;;0.55;;
49514;SDS011;35415;47.870;16.058;2023-04-15T08:10:32;0.80;;;0.50;;
49514;SDS011;35415;47.870;16.058;2023-04-15T08:13:00;0.65;;;0.45;;
49514;SDS011;35415;47.870;16.058;2023-04-15T08:15:27;0.38;;;0.38;;
49514;SDS011;35415;47.870;16.058;2023-04-15T08:17:58;0.30;;;0.30;;
49514;SDS011;35415;47.870;16.058;2023-04-15T08:20:39;0.63;;;0.43;;
49514;SDS011;35415;47.870;16.058;2023-04-15T08:23:06;2.05;;;0.52;;
49514;SDS011;35415;47.870;16.058;2023-04-15T08:25:34;0.40;;;0.40;;
49514;SDS011;35415;47.870;16.058;2023-04-15T08:28:02;0.30;;;0.30;;
49514;SDS011;35415;47.870;16.058;2023-04-15T08:30:31;0.80;;;0.80;;
49514;SDS011;35415;47.870;16.058;2023-04-15T08:32:59;1.25;;;0.90;;
49514;SDS011;35415;47.870;16.058;2023-04-15T08:35:26;0.80;;;0.57;;
49514;SDS011;35415;47.870;16.058;2023-04-15T08:37:54;0.60;;;0.60;;
49514;SDS011;35415;47.870;16.058;2023-04-15T08:40:22;0.55;;;0.50;;
49514;SDS011;35415;47.870;16.058;2023-04-15T08:43:00;1.02;;;0.65;;
49514;SDS011;35415;47.870;16.058;2023-04-15T08:45:30;0.85;;;0.50;;
49514;SDS011;35415;47.870;16.058;2023-04-15T08:47:59;1.33;;;0.50;;
49514;SDS011;35415;47.870;16.058;2023-04-15T08:50:34;0.50;;;0.50;;
49514;SDS011;35415;47.870;16.058;2023-04-15T08:53:04;1.15;;;0.50;;
49514;SDS011;35415;47.870;16.058;2023-04-15T08:55:32;1.10;;;0.63;;
49514;SDS011;35415;47.870;16.058;2023-04-15T08:58:02;1.88;;;0.47;;
49514;SDS011;35415;47.870;16.058;2023-04-15T09:00:30;1.42;;;0.60;;
49514;SDS011;35415;47.870;16.058;2023-04-15T09:02:59;1.05;;;0.50;;
49514;SDS011;35415;47.870;16.058;2023-04-15T09:05:26;1.85;;;0.30;;
49514;SDS011;35415;47.870;16.058;2023-04-15T09:07:53;1.95;;;0.40;;
49514;SDS011;35415;47.870;16.058;2023-04-15T09:10:22;0.50;;;0.50;;
49514;SDS011;35415;47.870;16.058;2023-04-15T09:12:49;1.45;;;0.63;;
49514;SDS011;35415;47.870;16.058;2023-04-15T09:15:17;1.67;;;0.77;;
49514;SDS011;35415;47.870;16.058;2023-04-15T09:17:45;0.55;;;0.50;;
49514;SDS011;35415;47.870;16.058;2023-04-15T09:20:13;0.90;;;0.60;;
49514;SDS011;35415;47.870;16.058;2023-04-15T09:22:45;1.45;;;0.70;;
49514;SDS011;35415;47.870;16.058;2023-04-15T09:25:39;0.88;;;0.57;;
49514;SDS011;35415;47.870;16.058;2023-04-15T09:28:07;0.63;;;0.60;;
49514;SDS011;35415;47.870;16.058;2023-04-15T09:30:35;0.80;;;0.68;;
49514;SDS011;35415;47.870;16.058;2023-04-15T09:33:03;2.05;;;0.80;;
49514;SDS011;35415;47.870;16.058;2023-04-15T09:35:32;2.63;;;1.48;;
49514;SDS011;35415;47.870;16.058;2023-04-15T09:38:02;4.30;;;2.30;;
49514;SDS011;35415;47.870;16.058;2023-04-15T09:40:34;2.50;;;1.60;;
49514;SDS011;35415;47.870;16.058;2023-04-15T09:43:03;1.67;;;1.30;;
49514;SDS011;35415;47.870;16.058;2023-04-15T09:45:31;1.25;;;1.15;;
49514;SDS011;35415;47.870;16.058;2023-04-15T09:47:59;3.67;;;3.00;;
49514;SDS011;35415;47.870;16.058;2023-04-15T09:50:41;1.95;;;1.75;;
49514;SDS011;35415;47.870;16.058;2023-04-15T09:53:09;2.20;;;2.00;;
49514;SDS011;35415;47.870;16.058;2023-04-15T09:55:38;4.35;;;1.73;;
49514;SDS011;35415;47.870;16.058;2023-04-15T09:58:10;6.68;;;2.83;;
49514;SDS011;35415;47.870;16.058;2023-04-15T10:00:44;3.58;;;1.55;;
49514;SDS011;35415;47.870;16.058;2023-04-15T10:03:13;1.60;;;0.90;;
49514;SDS011;35415;47.870;16.058;2023-04-15T10:05:44;1.63;;;0.70;;
49514;SDS011;35415;47.870;16.058;2023-04-15T10:08:13;1.92;;;0.63;;
49514;SDS011;35415;47.870;16.058;2023-04-15T10:10:43;1.15;;;0.73;;
49514;SDS011;35415;47.870;16.058;2023-04-15T10:13:12;2.35;;;0.90;;
49514;SDS011;35415;47.870;16.058;2023-04-15T10:15:42;1.15;;;0.70;;
49514;SDS011;35415;47.870;16.058;2023-04-15T10:18:12;0.93;;;0.70;;
49514;SDS011;35415;47.870;16.058;2023-04-15T10:20:42;1.02;;;0.77;;
49514;SDS011;35415;47.870;16.058;2023-04-15T10:23:10;0.85;;;0.75;;
49514;SDS011;35415;47.870;16.058;2023-04-15T10:25:37;0.50;;;0.50;;
49514;SDS011;35415;47.870;16.058;2023-04-15T10:28:06;1.55;;;0.80;;
49514;SDS011;35415;47.870;16.058;2023-04-15T10:30:34;0.88;;;0.70;;
49514;SDS011;35415;47.870;16.058;2023-04-15T10:33:05;0.70;;;0.70;;
49514;SDS011;35415;47.870;16.058;2023-04-15T10:35:35;0.90;;;0.80;;
49514;SDS011;35415;47.870;16.058;2023-04-15T10:43:50;1.00;;;0.90;;
49514;SDS011;35415;47.870;16.058;2023-04-15T10:46:18;0.70;;;0.65;;
49514;SDS011;35415;47.870;16.058;2023-04-15T10:48:49;0.80;;;0.60;;
49514;SDS011;35415;47.870;16.058;2023-04-15T10:51:25;0.70;;;0.50;;
49514;SDS011;35415;47.870;16.058;2023-04-15T10:53:55;1.80;;;0.57;;
49514;SDS011;35415;47.870;16.058;2023-04-15T10:56:23;0.55;;;0.30;;
49514;SDS011;35415;47.870;16.058;2023-04-15T10:58:52;0.30;;;0.30;;
49514;SDS011;35415;47.870;16.058;2023-04-15T11:01:19;0.28;;;0.20;;
49514;SDS011;35415;47.870;16.058;2023-04-15T11:03:48;0.73;;;0.20;;
49514;SDS011;35415;47.870;16.058;2023-04-15T11:06:17;0.38;;;0.35;;
49514;SDS011;35415;47.870;16.058;2023-04-15T11:08:54;0.55;;;0.40;;
49514;SDS011;35415;47.870;16.058;2023-04-15T11:11:23;0.40;;;0.40;;
49514;SDS011;35415;47.870;16.058;2023-04-15T11:14:26;0.50;;;0.30;;
49514;SDS011;35415;47.870;16.058;2023-04-15T11:16:53;0.30;;;0.30;;
49514;SDS011;35415;47.870;16.058;2023-04-15T11:19:22;0.40;;;0.40;;
49514;SDS011;35415;47.870;16.058;2023-04-15T11:21:49;1.52;;;0.50;;
49514;SDS011;35415;47.870;16.058;2023-04-15T11:24:22;0.30;;;0.30;;
49514;SDS011;35415;47.870;16.058;2023-04-15T11:26:56;0.20;;;0.20;;
49514;SDS011;35415;47.870;16.058;2023-04-15T11:29:29;0.55;;;0.40;;
49514;SDS011;35415;47.870;16.058;2023-04-15T11:32:07;0.30;;;0.22;;
49514;SDS011;35415;47.870;16.058;2023-04-15T11:34:34;0.60;;;0.20;;
49514;SDS011;35415;47.870;16.058;2023-04-15T11:37:02;0.10;;;0.10;;
49514;SDS011;35415;47.870;16.058;2023-04-15T11:39:30;0.50;;;0.50;;
49514;SDS011;35415;47.870;16.058;2023-04-15T11:41:58;0.25;;;0.20;;
49514;SDS011;35415;47.870;16.058;2023-04-15T11:44:26;0.10;;;0.10;;
49514;SDS011;35415;47.870;16.058;2023-04-15T11:46:55;0.22;;;0.10;;
49514;SDS011;35415;47.870;16.058;2023-04-15T11:49:25;0.10;;;0.10;;
49514;SDS011;35415;47.870;16.058;2023-04-15T11:51:53;0.40;;;0.40;;
49514;SDS011;35415;47.870;16.058;2023-04-15T11:54:20;0.20;;;0.20;;
49514;SDS011;35415;47.870;16.058;2023-04-15T11:56:49;0.57;;;0.20;;
49514;SDS011;35415;47.870;16.058;2023-04-15T11:59:18;0.40;;;0.20;;
49514;SDS011;35415;47.870;16.058;2023-04-15T12:01:45;0.30;;;0.30;;
49514;SDS011;35415;47.870;16.058;2023-04-15T12:04:16;0.35;;;0.35;;
49514;SDS011;35415;47.870;16.058;2023-04-15T12:06:46;0.35;;;0.20;;
49514;SDS011;35415;47.870;16.058;2023-04-15T12:09:13;0.30;;;0.30;;
49514;SDS011;35415;47.870;16.058;2023-04-15T12:11:42;0.20;;;0.20;;
49514;SDS011;35415;47.870;16.058;2023-04-15T12:14:15;0.10;;;0.10;;
49514;SDS011;35415;47.870;16.058;2023-04-15T12:16:46;0.20;;;0.20;;
49514;SDS011;35415;47.870;16.058;2023-04-15T12:19:16;0.80;;;0.30;;
49514;SDS011;35415;47.870;16.058;2023-04-15T12:21:47;0.32;;;0.30;;
49514;SDS011;35415;47.870;16.058;2023-04-15T12:24:18;0.32;;;0.20;;
49514;SDS011;35415;47.870;16.058;2023-04-15T12:26:48;0.15;;;0.15;;
49514;SDS011;35415;47.870;16.058;2023-04-15T12:29:18;0.10;;;0.10;;
49514;SDS011;35415;47.870;16.058;2023-04-15T12:31:46;1.65;;;0.10;;
49514;SDS011;35415;47.870;16.058;2023-04-15T12:34:24;0.88;;;0.35;;
49514;SDS011;35415;47.870;16.058;2023-04-15T12:36:52;0.10;;;0.10;;
49514;SDS011;35415;47.870;16.058;2023-04-15T12:39:20;0.73;;;0.30;;
49514;SDS011;35415;47.870;16.058;2023-04-15T12:41:48;0.20;;;0.17;;
49514;SDS011;35415;47.870;16.058;2023-04-15T12:44:15;0.55;;;0.30;;
49514;SDS011;35415;47.870;16.058;2023-04-15T12:46:42;0.28;;;0.28;;
49514;SDS011;35415;47.870;16.058;2023-04-15T12:49:10;1.52;;;1.17;;
49514;SDS011;35415;47.870;16.058;2023-04-15T12:51:40;1.98;;;1.33;;
49514;SDS011;35415;47.870;16.058;2023-04-15T12:54:08;2.00;;;1.05;;
49514;SDS011;35415;47.870;16.058;2023-04-15T12:56:36;1.63;;;0.93;;
49514;SDS011;35415;47.870;16.058;2023-04-15T12:59:03;2.70;;;1.10;;
49514;SDS011;35415;47.870;16.058;2023-04-15T13:01:30;1.55;;;1.13;;
49514;SDS011;35415;47.870;16.058;2023-04-15T13:03:58;1.05;;;0.60;;
49514;SDS011;35415;47.870;16.058;2023-04-15T13:06:25;0.82;;;0.50;;
49514;SDS011;35415;47.870;16.058;2023-04-15T13:08:54;0.40;;;0.30;;
49514;SDS011;35415;47.870;16.058;2023-04-15T13:11:21;1.60;;;0.80;;
49514;SDS011;35415;47.870;16.058;2023-04-15T13:13:49;0.47;;;0.40;;
49514;SDS011;35415;47.870;16.058;2023-04-15T13:16:17;0.77;;;0.77;;
49514;SDS011;35415;47.870;16.058;2023-04-15T13:18:44;3.42;;;0.47;;
49514;SDS011;35415;47.870;16.058;2023-04-15T13:21:12;0.45;;;0.20;;
49514;SDS011;35415;47.870;16.058;2023-04-15T13:23:40;0.10;;;0.10;;
49514;SDS011;35415;47.870;16.058;2023-04-15T13:26:08;0.43;;;0.20;;
49514;SDS011;35415;47.870;16.058;2023-04-15T13:28:35;0.20;;;0.10;;
49514;SDS011;35415;47.870;16.058;2023-04-15T13:31:03;0.32;;;0.32;;
49514;SDS011;35415;47.870;16.058;2023-04-15T13:33:31;0.10;;;0.10;;
49514;SDS011;35415;47.870;16.058;2023-04-15T13:35:59;0.30;;;0.30;;
49514;SDS011;35415;47.870;16.058;2023-04-15T13:38:26;0.28;;;0.20;;
49514;SDS011;35415;47.870;16.058;2023-04-15T13:40:53;0.20;;;0.20;;
49514;SDS011;35415;47.870;16.058;2023-04-15T13:43:22;0.20;;;0.20;;
49514;SDS011;35415;47.870;16.058;2023-04-15T13:45:49;0.20;;;0.20;;
49514;SDS011;35415;47.870;16.058;2023-04-15T13:48:17;0.45;;;0.17;;
49514;SDS011;35415;47.870;16.058;2023-04-15T13:50:44;0.30;;;0.30;;
49514;SDS011;35415;47.870;16.058;2023-04-15T13:53:15;0.30;;;0.25;;
49514;SDS011;35415;47.870;16.058;2023-04-15T13:55:42;0.43;;;0.20;;
49514;SDS011;35415;47.870;16.058;2023-04-15T13:58:10;0.10;;;0.10;;
49514;SDS011;35415;47.870;16.058;2023-04-15T14:00:38;0.30;;;0.30;;
49514;SDS011;35415;47.870;16.058;2023-04-15T14:03:06;0.40;;;0.20;;
49514;SDS011;35415;47.870;16.058;2023-04-15T14:05:33;0.15;;;0.15;;
49514;SDS011;35415;47.870;16.058;2023-04-15T14:08:00;0.05;;;0.05;;
49514;SDS011;35415;47.870;16.058;2023-04-15T14:10:28;0.38;;;0.28;;
49514;SDS011;35415;47.870;16.058;2023-04-15T14:12:55;0.47;;;0.20;;
49514;SDS011;35415;47.870;16.058;2023-04-15T14:15:22;0.50;;;0.50;;
49514;SDS011;35415;47.870;16.058;2023-04-15T14:17:52;0.28;;;0.25;;
49514;SDS011;35415;47.870;16.058;2023-04-15T14:20:20;0.30;;;0.00;;
49514;SDS011;35415;47.870;16.058;2023-04-15T14:22:47;0.40;;;0.10;;
49514;SDS011;35415;47.870;16.058;2023-04-15T14:25:15;0.13;;;0.13;;
49514;SDS011;35415;47.870;16.058;2023-04-15T14:27:42;0.10;;;0.00;;
49514;SDS011;35415;47.870;16.058;2023-04-15T14:30:09;0.10;;;0.10;;
49514;SDS011;35415;47.870;16.058;2023-04-15T14:32:37;0.10;;;0.10;;
49514;SDS011;35415;47.870;16.058;2023-04-15T14:35:07;0.17;;;0.15;;
49514;SDS011;35415;47.870;16.058;2023-04-15T14:37:35;0.28;;;0.13;;
49514;SDS011;35415;47.870;16.058;2023-04-15T14:40:03;0.10;;;0.10;;
49514;SDS011;35415;47.870;16.058;2023-04-15T14:42:32;0.20;;;0.20;;
49514;SDS011;35415;47.870;16.058;2023-04-15T14:44:59;0.20;;;0.17;;
49514;SDS011;35415;47.870;16.058;2023-04-15T14:47:26;0.17;;;0.17;;